createdAt,value
2019-05-03T00:02:55.299Z,3.40
2019-05-03T00:06:59.830Z,3.70
2019-05-03T00:11:04.450Z,3.70
2019-05-03T00:15:21.560Z,3.60
2019-05-03T00:19:26.181Z,3.60
2019-05-03T00:23:32.446Z,3.65
2019-05-03T00:27:37.027Z,3.67
2019-05-03T00:31:42.317Z,3.50
2019-05-03T00:35:51.942Z,3.70
2019-05-03T00:40:07.384Z,3.60
2019-05-03T00:48:16.956Z,3.50
2019-05-03T00:52:22.357Z,3.20
2019-05-03T00:56:27.339Z,3.30
2019-05-03T01:00:32.322Z,3.22
2019-05-03T01:04:37.016Z,3.30
2019-05-03T01:08:41.971Z,2.90
2019-05-03T01:12:46.503Z,3.42
2019-05-03T01:16:52.204Z,3.40
2019-05-03T01:20:57.203Z,3.27
2019-05-03T01:25:02.882Z,2.95
2019-05-03T01:29:08.058Z,3.12
2019-05-03T01:33:12.594Z,3.08
2019-05-03T01:37:17.110Z,2.85
2019-05-03T01:41:21.942Z,2.75
2019-05-03T01:45:26.457Z,2.62
2019-05-03T01:49:35.223Z,2.67
2019-05-03T01:53:41.675Z,2.65
2019-05-03T01:57:46.325Z,2.50
2019-05-03T02:01:58.461Z,2.45
2019-05-03T02:06:03.089Z,2.83
2019-05-03T02:10:07.857Z,2.67
2019-05-03T02:14:13.665Z,2.40
2019-05-03T02:18:18.194Z,2.45
2019-05-03T02:22:22.717Z,2.65
2019-05-03T02:26:27.258Z,2.70
2019-05-03T02:30:33.195Z,2.35
2019-05-03T02:34:38.329Z,2.40
2019-05-03T02:38:43.222Z,2.47
2019-05-03T02:43:05.992Z,2.58
2019-05-03T02:47:18.191Z,2.62
2019-05-03T02:51:22.758Z,2.60
2019-05-03T02:55:27.281Z,2.75
2019-05-03T02:59:31.837Z,2.52
2019-05-03T03:03:36.724Z,2.40
2019-05-03T03:07:45.879Z,2.60
2019-05-03T03:11:51.335Z,2.65
2019-05-03T03:15:57.397Z,2.87
2019-05-03T03:20:06.669Z,2.85
2019-05-03T03:24:16.387Z,2.70
2019-05-03T03:28:25.139Z,2.83
2019-05-03T03:32:32.124Z,2.72
2019-05-03T03:36:58.316Z,2.60
2019-05-03T03:40:55.647Z,2.95
2019-05-03T03:44:58.682Z,3.12
2019-05-03T03:49:06.826Z,2.83
2019-05-03T03:53:11.866Z,2.98
2019-05-03T03:57:16.889Z,2.70
2019-05-03T04:01:21.407Z,3.10
2019-05-03T04:05:25.979Z,3.15
2019-05-03T04:09:30.562Z,3.62
2019-05-03T04:13:36.925Z,3.00
2019-05-03T04:17:53.083Z,3.27
2019-05-03T04:21:58.697Z,2.80
2019-05-03T04:26:06.784Z,3.00
2019-05-03T04:30:10.089Z,3.08
2019-05-03T04:34:16.192Z,2.90
2019-05-03T04:38:20.950Z,3.10
2019-05-03T04:42:25.920Z,2.85
2019-05-03T04:46:30.608Z,3.20
2019-05-03T04:50:36.653Z,3.10
2019-05-03T04:54:45.183Z,2.90
2019-05-03T04:58:49.458Z,2.98
2019-05-03T05:02:55.182Z,2.62
2019-05-03T05:07:00.389Z,2.70
2019-05-03T05:11:06.754Z,2.80
2019-05-03T05:15:11.809Z,2.92
2019-05-03T05:19:35.683Z,2.92
2019-05-03T05:23:42.007Z,2.70
2019-05-03T05:35:58.946Z,2.75
2019-05-03T05:40:06.397Z,2.70
2019-05-03T05:44:10.929Z,2.72
2019-05-03T05:48:19.942Z,2.80
2019-05-03T05:52:24.626Z,2.70
2019-05-03T05:56:30.905Z,2.98
2019-05-03T06:00:55.973Z,2.50
2019-05-03T06:05:00.513Z,2.87
2019-05-03T06:09:08.726Z,2.72
2019-05-03T06:13:15.259Z,3.10
2019-05-03T06:17:24.652Z,2.92
2019-05-03T06:21:44.796Z,2.70
2019-05-03T06:25:49.085Z,2.90
2019-05-03T06:29:55.251Z,2.70
2019-05-03T06:38:04.898Z,3.08
2019-05-03T06:42:14.447Z,3.17
2019-05-03T06:46:18.230Z,3.20
2019-05-03T06:54:29.929Z,2.95
2019-05-03T06:58:36.508Z,3.00
2019-05-03T07:06:50.706Z,3.20
2019-05-03T07:10:59.788Z,3.00
2019-05-03T07:15:05.465Z,3.17
2019-05-03T07:19:10.253Z,2.92
2019-05-03T07:23:15.640Z,2.90
2019-05-03T07:27:21.134Z,2.92
2019-05-03T07:31:25.707Z,2.75
2019-05-03T07:35:30.482Z,3.00
2019-05-03T07:39:35.108Z,3.10
2019-05-03T07:43:39.629Z,3.33
2019-05-03T07:47:45.228Z,3.30
2019-05-03T07:51:50.216Z,2.90
2019-05-03T07:55:59.117Z,3.27
2019-05-03T08:00:05.654Z,2.92
2019-05-03T08:04:10.174Z,3.45
2019-05-03T08:08:15.097Z,3.02
2019-05-03T08:12:19.665Z,3.10
2019-05-03T08:16:25.139Z,2.83
2019-05-03T08:20:30.240Z,2.92
2019-05-03T08:24:34.795Z,3.02
2019-05-03T08:28:39.362Z,3.27
2019-05-03T08:32:57.568Z,3.12
2019-05-03T08:37:06.273Z,2.77
2019-05-03T08:41:15.358Z,2.95
2019-05-03T08:45:19.929Z,3.10
2019-05-03T08:49:25.514Z,2.92
2019-05-03T08:53:30.444Z,3.02
2019-05-03T08:57:35.473Z,3.10
2019-05-03T09:01:40.045Z,3.45
2019-05-03T09:05:45.865Z,3.50
2019-05-03T09:14:04.606Z,3.10
2019-05-03T09:18:09.318Z,3.10
2019-05-03T09:22:14.739Z,2.90
2019-05-03T09:26:19.757Z,2.90
2019-05-03T09:30:25.141Z,2.90
2019-05-03T09:34:29.734Z,2.53
2019-05-03T09:38:35.077Z,2.73
2019-05-03T09:42:39.721Z,2.70
2019-05-03T09:46:44.689Z,2.83
2019-05-03T09:50:49.253Z,2.50
2019-05-03T09:54:55.706Z,2.40
2019-05-03T09:59:00.235Z,2.17
2019-05-03T10:03:05.609Z,2.40
2019-05-03T10:07:10.598Z,2.27
2019-05-03T10:11:15.738Z,1.90
2019-05-03T10:15:37.187Z,2.10
2019-05-03T10:19:42.518Z,2.25
2019-05-03T10:23:47.097Z,1.92
2019-05-03T10:27:51.617Z,1.90
2019-05-03T10:31:57.789Z,1.80
2019-05-03T10:40:08.332Z,2.00
2019-05-03T10:44:14.988Z,2.20
2019-05-03T10:52:25.776Z,2.08
2019-05-03T10:56:32.149Z,1.90
2019-05-03T11:04:45.648Z,2.05
2019-05-03T11:12:51.997Z,2.00
2019-05-03T11:16:56.525Z,1.60
2019-05-03T11:21:01.055Z,1.90
2019-05-03T11:25:07.977Z,2.00
2019-05-03T11:29:12.504Z,2.00
2019-05-03T11:33:37.121Z,1.90
2019-05-03T11:37:49.410Z,1.87
2019-05-03T11:41:55.581Z,2.05
2019-05-03T11:50:06.081Z,1.90
2019-05-03T11:54:10.671Z,1.87
2019-05-03T11:58:19.438Z,1.90
2019-05-03T12:02:25.611Z,1.82
2019-05-03T12:10:49.772Z,1.70
2019-05-03T12:18:51.970Z,1.70
2019-05-03T12:26:55.842Z,1.65
2019-05-03T12:31:00.775Z,2.05
2019-05-03T12:35:06.231Z,1.90
2019-05-03T12:39:24.155Z,2.10
2019-05-03T12:47:22.352Z,1.80
2019-05-03T12:51:27.210Z,2.22
2019-05-03T12:55:31.726Z,2.15
2019-05-03T12:59:40.472Z,2.10
2019-05-03T13:03:52.894Z,2.20
2019-05-03T13:08:15.335Z,2.17
2019-05-03T13:12:22.356Z,1.70
2019-05-03T13:20:30.934Z,1.80
2019-05-03T13:24:36.283Z,1.57
2019-05-03T13:28:40.816Z,1.62
2019-05-03T13:32:45.786Z,1.67
2019-05-03T13:36:50.425Z,1.90
2019-05-03T13:40:55.077Z,1.80
2019-05-03T13:44:59.601Z,1.85
2019-05-03T13:49:05.402Z,1.50
2019-05-03T13:53:10.803Z,1.67
2019-05-03T13:57:15.718Z,1.70
2019-05-03T14:01:20.245Z,1.57
2019-05-03T14:05:24.761Z,1.52
2019-05-03T14:09:29.290Z,1.70
2019-05-03T14:13:35.388Z,1.50
2019-05-03T14:17:40.257Z,1.67
2019-05-03T14:21:54.497Z,2.00
2019-05-03T14:25:58.585Z,1.60
2019-05-03T14:30:05.464Z,1.60
2019-05-03T14:34:10.159Z,1.72
2019-05-03T14:38:15.219Z,1.65
2019-05-03T14:42:20.799Z,1.52
2019-05-03T14:46:32.671Z,1.50
2019-05-03T14:54:36.861Z,1.70
2019-05-03T15:02:50.981Z,1.67
2019-05-03T15:06:54.924Z,2.05
2019-05-03T15:11:00.857Z,1.70
2019-05-03T15:15:09.804Z,1.70
2019-05-03T15:19:14.839Z,1.70
2019-05-03T15:23:19.797Z,1.47
2019-05-03T15:27:24.806Z,1.90
2019-05-03T15:31:29.621Z,1.80
2019-05-03T15:35:35.167Z,1.70
2019-05-03T15:39:40.113Z,1.67
2019-05-03T15:44:01.331Z,1.82
2019-05-03T15:48:07.503Z,1.72
2019-05-03T15:56:15.728Z,1.77
2019-05-03T16:00:20.231Z,1.40
2019-05-03T16:04:25.137Z,1.80
2019-05-03T16:08:29.726Z,1.50
2019-05-03T16:12:34.530Z,1.70
2019-05-03T16:16:39.163Z,1.60
2019-05-03T16:20:45.115Z,1.62
2019-05-03T16:24:50.027Z,1.60
2019-05-03T16:29:02.269Z,1.70
2019-05-03T16:33:06.874Z,1.60
2019-05-03T16:37:11.762Z,1.47
2019-05-03T16:41:17.905Z,1.80
2019-05-03T16:45:22.589Z,1.60
2019-05-03T16:49:27.114Z,1.67
2019-05-03T16:53:31.719Z,1.22
2019-05-03T16:57:36.246Z,1.45
2019-05-03T17:01:41.289Z,1.40
2019-05-03T17:05:52.993Z,1.35
2019-05-03T17:09:59.158Z,1.35
2019-05-03T17:18:09.124Z,1.60
2019-05-03T17:22:14.857Z,1.50
2019-05-03T17:26:19.933Z,1.40
2019-05-03T17:30:32.616Z,1.40
2019-05-03T17:34:34.509Z,1.65
2019-05-03T17:43:00.480Z,1.52
2019-05-03T17:47:05.061Z,1.50
2019-05-03T17:51:11.293Z,1.30
2019-05-03T17:59:25.448Z,1.42
2019-05-03T18:07:39.625Z,1.40
2019-05-03T18:15:49.666Z,1.57
2019-05-03T18:19:55.356Z,1.40
2019-05-03T18:24:00.266Z,1.55
2019-05-03T18:28:04.857Z,1.50
2019-05-03T18:32:09.385Z,1.82
2019-05-03T18:36:14.755Z,1.50
2019-05-03T18:40:19.766Z,1.80
2019-05-03T18:44:25.931Z,1.52
2019-05-03T18:52:34.525Z,1.45
2019-05-03T18:56:39.112Z,1.60
2019-05-03T19:00:43.658Z,1.80
2019-05-03T19:04:49.632Z,1.30
2019-05-03T19:09:05.370Z,1.85
2019-05-03T19:13:18.051Z,1.80
2019-05-03T19:17:42.719Z,1.77
2019-05-03T19:21:48.897Z,1.80
2019-05-03T19:29:59.925Z,1.65
2019-05-03T19:34:06.038Z,1.80
2019-05-03T19:42:14.384Z,1.98
2019-05-03T19:46:18.910Z,2.00
2019-05-03T19:50:26.970Z,1.87
2019-05-03T19:58:35.249Z,1.75
2019-05-03T20:06:53.961Z,1.90
2019-05-03T20:11:15.272Z,2.17
2019-05-03T20:15:19.937Z,1.95
2019-05-03T20:19:25.696Z,1.82
2019-05-03T20:23:30.677Z,1.80
2019-05-03T20:27:35.390Z,1.82
2019-05-03T20:31:39.903Z,1.50
2019-05-03T20:35:45.177Z,1.70
2019-05-03T20:39:49.901Z,1.73
2019-05-03T20:44:10.799Z,1.80
2019-05-03T20:48:16.976Z,1.80
2019-05-03T20:56:25.297Z,1.80
2019-05-03T21:00:29.861Z,1.62
2019-05-03T21:04:35.330Z,1.62
2019-05-03T21:08:52.234Z,1.80
2019-05-03T21:12:46.522Z,1.52
2019-05-03T21:16:54.441Z,1.67
2019-05-03T21:21:00.557Z,1.60
2019-05-03T21:29:15.079Z,1.40
2019-05-03T21:33:19.805Z,1.60
2019-05-03T21:37:24.621Z,1.65
2019-05-03T21:41:29.132Z,1.77
2019-05-03T21:45:38.308Z,1.65
2019-05-03T21:49:44.462Z,1.67
2019-05-03T21:57:52.949Z,1.80
2019-05-03T22:01:57.541Z,1.77
2019-05-03T22:06:02.083Z,1.85
2019-05-03T22:10:06.739Z,2.05
2019-05-03T22:14:12.901Z,1.98
2019-05-03T22:22:25.593Z,2.02
2019-05-03T22:26:50.579Z,2.33
2019-05-03T22:30:55.125Z,2.00
2019-05-03T22:34:59.678Z,2.20
2019-05-03T22:39:06.641Z,2.35
2019-05-03T22:43:11.169Z,2.42
2019-05-03T22:47:15.694Z,2.35
2019-05-03T22:51:20.313Z,2.47
2019-05-03T22:55:24.852Z,2.40
2019-05-03T22:59:29.384Z,2.40
2019-05-03T23:03:35.544Z,2.15
2019-05-03T23:11:44.794Z,2.47
2019-05-03T23:15:49.961Z,2.58
2019-05-03T23:19:56.648Z,2.30
2019-05-03T23:24:01.246Z,2.85
2019-05-03T23:28:05.794Z,2.70
2019-05-03T23:32:10.340Z,2.50
2019-05-03T23:36:15.404Z,2.37
2019-05-03T23:40:20.444Z,2.73
2019-05-03T23:44:24.927Z,2.70
2019-05-03T23:48:29.479Z,2.60
2019-05-03T23:52:35.320Z,2.75
2019-05-03T23:56:40.093Z,3.25
